sensor_id;sensor_type;location;lat;lon;timestamp;pressure;altitude;pressure_sealevel;temperature;humidity
76406;BME280;65234;50.044;19.258;2023-02-28T00:01:19;99941.56;;;-0.60;95.76
76406;BME280;65234;50.044;19.258;2023-02-28T00:03:45;99939.94;;;-0.61;95.88
76406;BME280;65234;50.044;19.258;2023-02-28T00:06:11;99938.91;;;-0.65;95.53
76406;BME280;65234;50.044;19.258;2023-02-28T00:08:38;99948.22;;;-0.71;95.82
76406;BME280;65234;50.044;19.258;2023-02-28T00:11:06;99949.44;;;-0.77;95.64
76406;BME280;65234;50.044;19.258;2023-02-28T00:13:34;99949.94;;;-0.75;95.63
76406;BME280;65234;50.044;19.258;2023-02-28T00:16:02;99956.72;;;-0.72;96.53
76406;BME280;65234;50.044;19.258;2023-02-28T00:18:28;99959.28;;;-0.81;95.73
76406;BME280;65234;50.044;19.258;2023-02-28T00:20:54;99961.78;;;-0.84;96.52
76406;BME280;65234;50.044;19.258;2023-02-28T00:23:20;99960.47;;;-0.87;95.32
76406;BME280;65234;50.044;19.258;2023-02-28T00:25:47;99957.81;;;-0.92;94.45
76406;BME280;65234;50.044;19.258;2023-02-28T00:28:13;99965.38;;;-0.89;93.87
76406;BME280;65234;50.044;19.258;2023-02-28T00:30:39;99961.63;;;-0.93;94.92
76406;BME280;65234;50.044;19.258;2023-02-28T00:33:05;99966.63;;;-1.00;93.46
76406;BME280;65234;50.044;19.258;2023-02-28T00:35:31;99975.88;;;-1.01;93.50
76406;BME280;65234;50.044;19.258;2023-02-28T00:37:56;99974.78;;;-1.00;92.60
76406;BME280;65234;50.044;19.258;2023-02-28T00:40:22;99973.22;;;-1.06;92.27
76406;BME280;65234;50.044;19.258;2023-02-28T00:42:49;99970.50;;;-1.06;92.71
76406;BME280;65234;50.044;19.258;2023-02-28T00:45:15;99965.06;;;-1.06;92.98
76406;BME280;65234;50.044;19.258;2023-02-28T00:47:40;99970.22;;;-1.05;92.61
76406;BME280;65234;50.044;19.258;2023-02-28T00:50:08;99962.97;;;-1.14;92.05
76406;BME280;65234;50.044;19.258;2023-02-28T00:52:34;99967.31;;;-1.13;91.95
76406;BME280;65234;50.044;19.258;2023-02-28T00:55:00;99969.53;;;-1.15;91.95
76406;BME280;65234;50.044;19.258;2023-02-28T00:57:25;99967.91;;;-1.16;92.46
76406;BME280;65234;50.044;19.258;2023-02-28T00:59:52;99968.50;;;-1.19;92.01
76406;BME280;65234;50.044;19.258;2023-02-28T01:02:18;99965.78;;;-1.19;92.29
76406;BME280;65234;50.044;19.258;2023-02-28T01:04:44;99965.78;;;-1.19;92.33
76406;BME280;65234;50.044;19.258;2023-02-28T01:07:09;99955.41;;;-1.17;93.28
76406;BME280;65234;50.044;19.258;2023-02-28T01:09:35;99956.00;;;-1.20;93.33
76406;BME280;65234;50.044;19.258;2023-02-28T01:12:01;99953.28;;;-1.20;93.37
76406;BME280;65234;50.044;19.258;2023-02-28T01:14:27;99952.25;;;-1.24;93.44
76406;BME280;65234;50.044;19.258;2023-02-28T01:16:54;99954.69;;;-1.23;93.10
76406;BME280;65234;50.044;19.258;2023-02-28T01:19:20;99951.16;;;-1.23;92.94
76406;BME280;65234;50.044;19.258;2023-02-28T01:21:45;99959.31;;;-1.23;93.39
76406;BME280;65234;50.044;19.258;2023-02-28T01:24:11;99950.03;;;-1.22;94.31
76406;BME280;65234;50.044;19.258;2023-02-28T01:26:36;99948.50;;;-1.28;94.26
76406;BME280;65234;50.044;19.258;2023-02-28T01:29:02;99953.97;;;-1.33;94.51
76406;BME280;65234;50.044;19.258;2023-02-28T01:31:28;99945.91;;;-1.38;94.36
76406;BME280;65234;50.044;19.258;2023-02-28T01:33:55;99947.81;;;-1.39;93.81
76406;BME280;65234;50.044;19.258;2023-02-28T01:36:23;99948.69;;;-1.44;94.61
76406;BME280;65234;50.044;19.258;2023-02-28T01:38:49;99949.00;;;-1.50;94.68
76406;BME280;65234;50.044;19.258;2023-02-28T01:41:17;99939.03;;;-1.55;94.76
76406;BME280;65234;50.044;19.258;2023-02-28T01:44:00;99934.69;;;-1.56;94.92
76406;BME280;65234;50.044;19.258;2023-02-28T01:46:26;99938.22;;;-1.55;95.06
76406;BME280;65234;50.044;19.258;2023-02-28T01:48:57;99936.66;;;-1.61;94.86
76406;BME280;65234;50.044;19.258;2023-02-28T01:51:29;99933.44;;;-1.63;95.74
76406;BME280;65234;50.044;19.258;2023-02-28T01:54:00;99938.63;;;-1.67;95.96
76406;BME280;65234;50.044;19.258;2023-02-28T01:56:29;99943.53;;;-1.69;96.11
76406;BME280;65234;50.044;19.258;2023-02-28T01:58:56;99942.47;;;-1.73;96.90
76406;BME280;65234;50.044;19.258;2023-02-28T02:01:24;99934.34;;;-1.73;96.75
76406;BME280;65234;50.044;19.258;2023-02-28T02:03:54;99935.50;;;-1.79;96.50
76406;BME280;65234;50.044;19.258;2023-02-28T02:06:22;99945.31;;;-1.83;97.15
76406;BME280;65234;50.044;19.258;2023-02-28T02:08:48;99943.47;;;-1.87;97.24
76406;BME280;65234;50.044;19.258;2023-02-28T02:11:18;99947.28;;;-1.88;96.49
76406;BME280;65234;50.044;19.258;2023-02-28T02:13:57;99943.22;;;-1.91;96.49
76406;BME280;65234;50.044;19.258;2023-02-28T02:16:34;99937.88;;;-2.01;97.55
76406;BME280;65234;50.044;19.258;2023-02-28T02:19:15;99934.91;;;-2.00;98.25
76406;BME280;65234;50.044;19.258;2023-02-28T02:22:29;99924.63;;;-2.03;97.96
76406;BME280;65234;50.044;19.258;2023-02-28T02:25:20;99937.34;;;-1.98;98.55
76406;BME280;65234;50.044;19.258;2023-02-28T02:28:10;99935.25;;;-2.06;98.01
76406;BME280;65234;50.044;19.258;2023-02-28T02:31:05;99932.81;;;-2.08;98.31
76406;BME280;65234;50.044;19.258;2023-02-28T02:36:37;99928.22;;;-2.12;98.39
76406;BME280;65234;50.044;19.258;2023-02-28T02:39:11;99930.94;;;-2.12;98.19
76406;BME280;65234;50.044;19.258;2023-02-28T02:41:40;99925.81;;;-2.14;98.70
76406;BME280;65234;50.044;19.258;2023-02-28T02:44:13;99905.56;;;-2.26;98.33
76406;BME280;65234;50.044;19.258;2023-02-28T02:46:45;99920.66;;;-2.15;98.85
76406;BME280;65234;50.044;19.258;2023-02-28T02:49:15;99927.13;;;-2.11;98.83
76406;BME280;65234;50.044;19.258;2023-02-28T02:51:44;99933.88;;;-2.09;99.66
76406;BME280;65234;50.044;19.258;2023-02-28T02:54:15;99926.56;;;-2.08;99.02
76406;BME280;65234;50.044;19.258;2023-02-28T02:56:45;99933.63;;;-2.07;99.15
76406;BME280;65234;50.044;19.258;2023-02-28T02:59:13;99927.66;;;-2.09;99.11
76406;BME280;65234;50.044;19.258;2023-02-28T03:01:41;99931.72;;;-2.07;99.52
76406;BME280;65234;50.044;19.258;2023-02-28T03:04:09;99934.44;;;-2.07;99.71
76406;BME280;65234;50.044;19.258;2023-02-28T03:06:36;99931.41;;;-2.05;99.51
76406;BME280;65234;50.044;19.258;2023-02-28T03:09:03;99937.97;;;-2.06;99.05
76406;BME280;65234;50.044;19.258;2023-02-28T03:11:29;99936.59;;;-2.09;98.64
76406;BME280;65234;50.044;19.258;2023-02-28T03:14:08;99933.72;;;-2.17;99.85
76406;BME280;65234;50.044;19.258;2023-02-28T03:16:49;99923.41;;;-2.20;100.00
76406;BME280;65234;50.044;19.258;2023-02-28T03:19:31;99928.03;;;-2.21;100.00
76406;BME280;65234;50.044;19.258;2023-02-28T03:22:09;99924.00;;;-2.23;99.66
76406;BME280;65234;50.044;19.258;2023-02-28T03:24:44;99931.13;;;-2.32;99.64
76406;BME280;65234;50.044;19.258;2023-02-28T03:27:15;99929.78;;;-2.35;99.55
76406;BME280;65234;50.044;19.258;2023-02-28T03:29:44;99932.03;;;-2.42;100.00
76406;BME280;65234;50.044;19.258;2023-02-28T03:32:16;99932.31;;;-2.44;99.99
76406;BME280;65234;50.044;19.258;2023-02-28T03:34:47;99925.81;;;-2.48;100.00
76406;BME280;65234;50.044;19.258;2023-02-28T03:37:16;99935.06;;;-2.49;100.00
76406;BME280;65234;50.044;19.258;2023-02-28T03:39:46;99940.75;;;-2.45;100.00
76406;BME280;65234;50.044;19.258;2023-02-28T03:42:15;99938.34;;;-2.52;99.55
76406;BME280;65234;50.044;19.258;2023-02-28T03:44:46;99940.25;;;-2.52;98.67
76406;BME280;65234;50.044;19.258;2023-02-28T03:47:16;99945.97;;;-2.54;98.76
76406;BME280;65234;50.044;19.258;2023-02-28T03:49:46;99946.00;;;-2.59;99.36
76406;BME280;65234;50.044;19.258;2023-02-28T03:52:17;99957.41;;;-2.62;99.59
76406;BME280;65234;50.044;19.258;2023-02-28T03:54:48;99956.31;;;-2.61;99.04
76406;BME280;65234;50.044;19.258;2023-02-28T03:57:23;99956.06;;;-2.64;98.87
76406;BME280;65234;50.044;19.258;2023-02-28T03:59:56;99955.06;;;-2.73;99.60
76406;BME280;65234;50.044;19.258;2023-02-28T04:02:25;99957.78;;;-2.73;99.16
76406;BME280;65234;50.044;19.258;2023-02-28T04:04:50;99956.50;;;-2.86;100.00
76406;BME280;65234;50.044;19.258;2023-02-28T04:07:17;99967.66;;;-2.93;100.00
76406;BME280;65234;50.044;19.258;2023-02-28T04:09:44;99967.34;;;-2.91;100.00
76406;BME280;65234;50.044;19.258;2023-02-28T04:12:10;99970.06;;;-2.91;100.00
76406;BME280;65234;50.044;19.258;2023-02-28T04:14:36;99973.84;;;-2.92;99.90
76406;BME280;65234;50.044;19.258;2023-02-28T04:17:01;99966.84;;;-2.98;99.75
76406;BME280;65234;50.044;19.258;2023-02-28T04:19:27;99967.44;;;-3.01;100.00
76406;BME280;65234;50.044;19.258;2023-02-28T04:21:53;99972.28;;;-2.98;100.00
76406;BME280;65234;50.044;19.258;2023-02-28T04:24:21;99969.06;;;-3.05;100.00
76406;BME280;65234;50.044;19.258;2023-02-28T04:26:50;99971.78;;;-3.05;100.00
76406;BME280;65234;50.044;19.258;2023-02-28T04:29:19;99975.31;;;-3.10;100.00
76406;BME280;65234;50.044;19.258;2023-02-28T04:31:45;99978.81;;;-3.04;100.00
76406;BME280;65234;50.044;19.258;2023-02-28T04:34:11;99968.28;;;-3.11;100.00
76406;BME280;65234;50.044;19.258;2023-02-28T04:36:37;99970.72;;;-3.09;100.00
76406;BME280;65234;50.044;19.258;2023-02-28T04:39:03;99980.75;;;-3.10;100.00
76406;BME280;65234;50.044;19.258;2023-02-28T04:41:29;99976.66;;;-3.07;100.00
76406;BME280;65234;50.044;19.258;2023-02-28T04:43:56;99978.84;;;-3.09;100.00
76406;BME280;65234;50.044;19.258;2023-02-28T04:46:23;99982.38;;;-3.09;100.00
76406;BME280;65234;50.044;19.258;2023-02-28T04:48:49;99976.16;;;-3.14;100.00
76406;BME280;65234;50.044;19.258;2023-02-28T04:51:18;99977.53;;;-3.17;100.00
76406;BME280;65234;50.044;19.258;2023-02-28T04:53:43;99978.34;;;-3.16;100.00
76406;BME280;65234;50.044;19.258;2023-02-28T04:56:11;99979.44;;;-3.22;100.00
76406;BME280;65234;50.044;19.258;2023-02-28T04:58:37;99970.22;;;-3.21;100.00
76406;BME280;65234;50.044;19.258;2023-02-28T05:01:06;99986.50;;;-3.21;100.00
76406;BME280;65234;50.044;19.258;2023-02-28T05:03:32;99976.72;;;-3.22;100.00
76406;BME280;65234;50.044;19.258;2023-02-28T05:05:58;99978.34;;;-3.21;100.00
76406;BME280;65234;50.044;19.258;2023-02-28T05:08:23;99982.16;;;-3.27;100.00
76406;BME280;65234;50.044;19.258;2023-02-28T05:10:49;99973.78;;;-3.31;100.00
76406;BME280;65234;50.044;19.258;2023-02-28T05:13:15;99991.97;;;-3.37;100.00
76406;BME280;65234;50.044;19.258;2023-02-28T05:15:41;99977.34;;;-3.41;100.00
76406;BME280;65234;50.044;19.258;2023-02-28T05:18:09;99980.06;;;-3.41;100.00
76406;BME280;65234;50.044;19.258;2023-02-28T05:20:34;99983.03;;;-3.42;100.00
76406;BME280;65234;50.044;19.258;2023-02-28T05:23:00;99988.47;;;-3.42;100.00
76406;BME280;65234;50.044;19.258;2023-02-28T05:25:26;99981.41;;;-3.43;100.00
76406;BME280;65234;50.044;19.258;2023-02-28T05:27:52;99987.13;;;-3.45;100.00
76406;BME280;65234;50.044;19.258;2023-02-28T05:30:18;99993.63;;;-3.46;100.00
76406;BME280;65234;50.044;19.258;2023-02-28T05:32:44;99992.81;;;-3.46;100.00
76406;BME280;65234;50.044;19.258;2023-02-28T05:35:11;100000.09;;;-3.42;100.00
76406;BME280;65234;50.044;19.258;2023-02-28T05:37:37;99998.72;;;-3.39;100.00
76406;BME280;65234;50.044;19.258;2023-02-28T05:40:04;100000.63;;;-3.40;100.00
76406;BME280;65234;50.044;19.258;2023-02-28T05:42:30;100005.78;;;-3.38;100.00
76406;BME280;65234;50.044;19.258;2023-02-28T05:44:56;100008.75;;;-3.40;100.00
76406;BME280;65234;50.044;19.258;2023-02-28T05:47:21;100012.81;;;-3.37;100.00
76406;BME280;65234;50.044;19.258;2023-02-28T05:49:47;100015.25;;;-3.36;100.00
76406;BME280;65234;50.044;19.258;2023-02-28T05:52:14;100017.44;;;-3.38;100.00
76406;BME280;65234;50.044;19.258;2023-02-28T05:54:41;100015.53;;;-3.32;100.00
76406;BME280;65234;50.044;19.258;2023-02-28T05:57:06;100030.94;;;-3.27;100.00
76406;BME280;65234;50.044;19.258;2023-02-28T05:59:32;100020.91;;;-3.27;100.00
76406;BME280;65234;50.044;19.258;2023-02-28T06:01:58;100030.34;;;-3.19;100.00
76406;BME280;65234;50.044;19.258;2023-02-28T06:04:24;100026.56;;;-3.18;100.00
76406;BME280;65234;50.044;19.258;2023-02-28T06:06:50;100031.44;;;-3.15;100.00
76406;BME280;65234;50.044;19.258;2023-02-28T06:09:18;100029.28;;;-3.13;100.00
76406;BME280;65234;50.044;19.258;2023-02-28T06:11:43;100035.22;;;-3.11;100.00
76406;BME280;65234;50.044;19.258;2023-02-28T06:14:13;100038.72;;;-3.11;100.00
76406;BME280;65234;50.044;19.258;2023-02-28T06:16:39;100040.63;;;-3.11;100.00
76406;BME280;65234;50.044;19.258;2023-02-28T06:19:06;100041.75;;;-3.12;100.00
76406;BME280;65234;50.044;19.258;2023-02-28T06:21:31;100039.56;;;-3.10;100.00
76406;BME280;65234;50.044;19.258;2023-02-28T06:23:58;100045.25;;;-3.12;100.00
76406;BME280;65234;50.044;19.258;2023-02-28T06:26:25;100045.78;;;-3.10;100.00
76406;BME280;65234;50.044;19.258;2023-02-28T06:28:52;100044.41;;;-3.07;100.00
76406;BME280;65234;50.044;19.258;2023-02-28T06:31:18;100040.63;;;-3.06;100.00
76406;BME280;65234;50.044;19.258;2023-02-28T06:33:45;100051.72;;;-3.03;100.00
76406;BME280;65234;50.044;19.258;2023-02-28T06:36:13;100047.09;;;-3.02;100.00
76406;BME280;65234;50.044;19.258;2023-02-28T06:38:39;100055.75;;;-3.00;100.00
76406;BME280;65234;50.044;19.258;2023-02-28T06:41:05;100056.31;;;-2.98;100.00
76406;BME280;65234;50.044;19.258;2023-02-28T06:43:35;100054.13;;;-2.96;100.00
76406;BME280;65234;50.044;19.258;2023-02-28T06:46:03;100046.28;;;-2.98;100.00
76406;BME280;65234;50.044;19.258;2023-02-28T06:48:29;100057.66;;;-2.96;100.00
76406;BME280;65234;50.044;19.258;2023-02-28T06:51:01;100058.47;;;-2.95;100.00
76406;BME280;65234;50.044;19.258;2023-02-28T06:53:27;100063.06;;;-2.91;100.00
76406;BME280;65234;50.044;19.258;2023-02-28T06:55:53;100061.16;;;-2.90;100.00
76406;BME280;65234;50.044;19.258;2023-02-28T06:58:19;100061.16;;;-2.90;100.00
76406;BME280;65234;50.044;19.258;2023-02-28T07:00:50;100062.25;;;-2.91;100.00
76406;BME280;65234;50.044;19.258;2023-02-28T07:03:16;100067.66;;;-2.86;100.00
76406;BME280;65234;50.044;19.258;2023-02-28T07:05:42;100071.69;;;-2.83;100.00
76406;BME280;65234;50.044;19.258;2023-02-28T07:08:08;100073.88;;;-2.80;100.00
76406;BME280;65234;50.044;19.258;2023-02-28T07:10:33;100077.63;;;-2.76;100.00
76406;BME280;65234;50.044;19.258;2023-02-28T07:12:59;100083.34;;;-2.78;100.00
76406;BME280;65234;50.044;19.258;2023-02-28T07:15:25;100078.16;;;-2.74;100.00
76406;BME280;65234;50.044;19.258;2023-02-28T07:17:52;100078.97;;;-2.74;100.00
76406;BME280;65234;50.044;19.258;2023-02-28T07:20:19;100082.75;;;-2.70;100.00
76406;BME280;65234;50.044;19.258;2023-02-28T07:22:45;100090.59;;;-2.68;100.00
76406;BME280;65234;50.044;19.258;2023-02-28T07:25:10;100086.25;;;-2.64;100.00
76406;BME280;65234;50.044;19.258;2023-02-28T07:27:36;100090.31;;;-2.62;100.00
76406;BME280;65234;50.044;19.258;2023-02-28T07:30:02;100093.78;;;-2.56;100.00
76406;BME280;65234;50.044;19.258;2023-02-28T07:32:28;100084.81;;;-2.52;100.00
76406;BME280;65234;50.044;19.258;2023-02-28T07:34:55;100090.22;;;-2.47;100.00
76406;BME280;65234;50.044;19.258;2023-02-28T07:37:22;100091.81;;;-2.41;100.00
76406;BME280;65234;50.044;19.258;2023-02-28T07:39:47;100095.84;;;-2.33;100.00
76406;BME280;65234;50.044;19.258;2023-02-28T07:42:13;100086.34;;;-2.30;100.00
76406;BME280;65234;50.044;19.258;2023-02-28T07:44:39;100092.22;;;-2.18;100.00
76406;BME280;65234;50.044;19.258;2023-02-28T07:47:05;100093.25;;;-2.09;100.00
76406;BME280;65234;50.044;19.258;2023-02-28T07:49:31;100091.56;;;-2.00;100.00
76406;BME280;65234;50.044;19.258;2023-02-28T07:51:58;100089.56;;;-1.90;100.00
76406;BME280;65234;50.044;19.258;2023-02-28T07:54:24;100094.13;;;-1.80;100.00
76406;BME280;65234;50.044;19.258;2023-02-28T07:56:50;100087.56;;;-1.74;100.00
76406;BME280;65234;50.044;19.258;2023-02-28T07:59:16;100090.41;;;-1.60;100.00
76406;BME280;65234;50.044;19.258;2023-02-28T08:01:41;100092.50;;;-1.52;100.00
76406;BME280;65234;50.044;19.258;2023-02-28T08:04:07;100084.50;;;-1.38;100.00
76406;BME280;65234;50.044;19.258;2023-02-28T08:06:33;100085.50;;;-1.29;100.00
76406;BME280;65234;50.044;19.258;2023-02-28T08:09:00;100086.50;;;-1.20;100.00
76406;BME280;65234;50.044;19.258;2023-02-28T08:11:26;100089.03;;;-1.05;100.00
76406;BME280;65234;50.044;19.258;2023-02-28T08:13:51;100085.91;;;-0.93;100.00
76406;BME280;65234;50.044;19.258;2023-02-28T08:16:17;100083.41;;;-0.90;100.00
76406;BME280;65234;50.044;19.258;2023-02-28T08:18:43;100090.94;;;-0.82;99.91
76406;BME280;65234;50.044;19.258;2023-02-28T08:21:10;100086.22;;;-0.71;99.51
76406;BME280;65234;50.044;19.258;2023-02-28T08:23:35;100088.06;;;-0.48;100.00
76406;BME280;65234;50.044;19.258;2023-02-28T08:26:03;100092.72;;;-0.30;100.00
76406;BME280;65234;50.044;19.258;2023-02-28T08:28:29;100089.72;;;-0.28;97.95
76406;BME280;65234;50.044;19.258;2023-02-28T08:30:55;100092.28;;;-0.18;96.73
76406;BME280;65234;50.044;19.258;2023-02-28T08:33:21;100084.31;;;-0.15;96.70
76406;BME280;65234;50.044;19.258;2023-02-28T08:35:47;100091.00;;;-0.07;96.67
76406;BME280;65234;50.044;19.258;2023-02-28T08:38:12;100090.88;;;0.03;95.49
76406;BME280;65234;50.044;19.258;2023-02-28T08:40:38;100086.25;;;0.04;94.27
76406;BME280;65234;50.044;19.258;2023-02-28T08:43:05;100089.75;;;0.04;93.69
76406;BME280;65234;50.044;19.258;2023-02-28T08:45:31;100093.75;;;0.12;93.63
76406;BME280;65234;50.044;19.258;2023-02-28T08:47:57;100088.19;;;0.17;93.46
76406;BME280;65234;50.044;19.258;2023-02-28T08:50:22;100091.13;;;0.20;93.46
76406;BME280;65234;50.044;19.258;2023-02-28T08:52:48;100085.69;;;0.20;92.24
76406;BME280;65234;50.044;19.258;2023-02-28T08:55:14;100091.19;;;0.34;93.67
76406;BME280;65234;50.044;19.258;2023-02-28T08:57:40;100086.47;;;0.39;92.90
76406;BME280;65234;50.044;19.258;2023-02-28T09:00:09;100092.28;;;0.33;90.52
76406;BME280;65234;50.044;19.258;2023-02-28T09:02:34;100090.38;;;0.33;90.30
76406;BME280;65234;50.044;19.258;2023-02-28T09:05:00;100093.03;;;0.38;91.25
76406;BME280;65234;50.044;19.258;2023-02-28T09:07:26;100095.66;;;0.43;91.49
76406;BME280;65234;50.044;19.258;2023-02-28T09:09:52;100082.34;;;0.56;91.46
76406;BME280;65234;50.044;19.258;2023-02-28T09:12:17;100089.75;;;0.69;90.26
76406;BME280;65234;50.044;19.258;2023-02-28T09:14:43;100089.28;;;0.80;88.42
76406;BME280;65234;50.044;19.258;2023-02-28T09:17:10;100085.44;;;0.95;90.34
76406;BME280;65234;50.044;19.258;2023-02-28T09:19:36;100088.69;;;0.97;87.81
76406;BME280;65234;50.044;19.258;2023-02-28T09:22:02;100086.47;;;0.85;85.44
76406;BME280;65234;50.044;19.258;2023-02-28T09:24:27;100089.88;;;0.91;87.51
76406;BME280;65234;50.044;19.258;2023-02-28T09:26:53;100086.88;;;1.06;85.23
76406;BME280;65234;50.044;19.258;2023-02-28T09:29:19;100091.81;;;1.04;82.21
76406;BME280;65234;50.044;19.258;2023-02-28T09:31:44;100086.25;;;0.95;83.43
76406;BME280;65234;50.044;19.258;2023-02-28T09:34:12;100083.03;;;0.93;83.78
76406;BME280;65234;50.044;19.258;2023-02-28T09:36:37;100090.91;;;0.81;83.21
76406;BME280;65234;50.044;19.258;2023-02-28T09:39:03;100083.69;;;0.72;84.81
76406;BME280;65234;50.044;19.258;2023-02-28T09:41:36;100084.44;;;0.77;86.76
76406;BME280;65234;50.044;19.258;2023-02-28T09:44:02;100089.69;;;0.87;86.82
76406;BME280;65234;50.044;19.258;2023-02-28T09:46:33;100087.06;;;0.82;85.87
76406;BME280;65234;50.044;19.258;2023-02-28T09:49:02;100083.22;;;0.83;85.09
76406;BME280;65234;50.044;19.258;2023-02-28T09:51:47;100090.69;;;0.78;85.11
76406;BME280;65234;50.044;19.258;2023-02-28T09:54:18;100083.00;;;0.80;85.06
76406;BME280;65234;50.044;19.258;2023-02-28T09:56:45;100088.09;;;0.86;86.11
76406;BME280;65234;50.044;19.258;2023-02-28T09:59:22;100088.50;;;0.93;86.20
76406;BME280;65234;50.044;19.258;2023-02-28T10:01:57;100089.28;;;1.08;87.78
76406;BME280;65234;50.044;19.258;2023-02-28T10:04:36;100084.53;;;1.27;87.92
76406;BME280;65234;50.044;19.258;2023-02-28T10:07:16;100084.44;;;1.32;85.72
76406;BME280;65234;50.044;19.258;2023-02-28T10:09:45;100086.69;;;1.30;84.27
76406;BME280;65234;50.044;19.258;2023-02-28T10:12:12;100083.81;;;1.49;85.48
76406;BME280;65234;50.044;19.258;2023-02-28T10:14:44;100090.59;;;1.51;84.41
76406;BME280;65234;50.044;19.258;2023-02-28T10:17:12;100096.47;;;1.45;84.80
76406;BME280;65234;50.044;19.258;2023-02-28T10:19:44;100092.63;;;1.46;85.71
76406;BME280;65234;50.044;19.258;2023-02-28T10:22:16;100095.56;;;1.49;86.81
76406;BME280;65234;50.044;19.258;2023-02-28T10:24:45;100090.09;;;1.49;85.40
76406;BME280;65234;50.044;19.258;2023-02-28T10:27:14;100082.00;;;1.58;86.11
76406;BME280;65234;50.044;19.258;2023-02-28T10:29:43;100083.09;;;1.57;84.69
76406;BME280;65234;50.044;19.258;2023-02-28T10:32:11;100077.16;;;1.41;85.34
76406;BME280;65234;50.044;19.258;2023-02-28T10:34:39;100080.69;;;1.28;84.15
76406;BME280;65234;50.044;19.258;2023-02-28T10:37:04;100076.16;;;1.23;84.33
76406;BME280;65234;50.044;19.258;2023-02-28T10:39:37;100072.22;;;1.29;82.67
76406;BME280;65234;50.044;19.258;2023-02-28T10:42:04;100067.38;;;1.26;83.04
76406;BME280;65234;50.044;19.258;2023-02-28T10:44:30;100070.50;;;1.33;83.52
76406;BME280;65234;50.044;19.258;2023-02-28T10:46:56;100068.06;;;1.46;83.31
76406;BME280;65234;50.044;19.258;2023-02-28T10:49:24;100069.97;;;1.31;82.78
76406;BME280;65234;50.044;19.258;2023-02-28T10:51:52;100055.09;;;1.51;82.11
76406;BME280;65234;50.044;19.258;2023-02-28T10:54:22;100055.78;;;1.57;81.37
76406;BME280;65234;50.044;19.258;2023-02-28T10:57:14;100059.72;;;1.64;81.44
76406;BME280;65234;50.044;19.258;2023-02-28T10:59:41;100053.53;;;1.72;80.73
76406;BME280;65234;50.044;19.258;2023-02-28T11:02:32;100053.72;;;1.76;82.42
76406;BME280;65234;50.044;19.258;2023-02-28T11:04:59;100047.75;;;1.74;78.55
76406;BME280;65234;50.044;19.258;2023-02-28T11:07:25;100044.72;;;1.75;79.45
76406;BME280;65234;50.044;19.258;2023-02-28T11:09:52;100055.88;;;1.65;78.29
76406;BME280;65234;50.044;19.258;2023-02-28T11:12:25;100048.88;;;1.73;79.68
76406;BME280;65234;50.044;19.258;2023-02-28T11:14:54;100047.53;;;1.84;81.12
76406;BME280;65234;50.044;19.258;2023-02-28T11:17:23;100046.72;;;1.83;80.33
76406;BME280;65234;50.044;19.258;2023-02-28T11:19:51;100038.22;;;1.85;79.27
76406;BME280;65234;50.044;19.258;2023-02-28T11:22:20;100034.50;;;1.81;79.47
76406;BME280;65234;50.044;19.258;2023-02-28T11:24:50;100025.03;;;1.87;77.39
76406;BME280;65234;50.044;19.258;2023-02-28T11:27:37;100013.94;;;1.83;78.06
76406;BME280;65234;50.044;19.258;2023-02-28T11:30:23;100013.13;;;2.05;79.60
76406;BME280;65234;50.044;19.258;2023-02-28T11:32:49;100004.63;;;2.07;78.69
76406;BME280;65234;50.044;19.258;2023-02-28T11:35:20;100007.09;;;1.95;77.90
76406;BME280;65234;50.044;19.258;2023-02-28T11:37:46;100005.00;;;1.92;78.39
76406;BME280;65234;50.044;19.258;2023-02-28T11:40:13;100008.59;;;2.01;78.89
76406;BME280;65234;50.044;19.258;2023-02-28T11:42:48;100002.22;;;2.05;76.44
76406;BME280;65234;50.044;19.258;2023-02-28T11:45:25;100002.69;;;2.07;75.35
76406;BME280;65234;50.044;19.258;2023-02-28T11:47:58;99991.88;;;2.02;72.77
76406;BME280;65234;50.044;19.258;2023-02-28T11:50:39;100005.34;;;1.99;75.40
76406;BME280;65234;50.044;19.258;2023-02-28T11:53:14;99992.03;;;1.97;74.68
76406;BME280;65234;50.044;19.258;2023-02-28T11:55:45;99990.88;;;1.98;74.81
76406;BME280;65234;50.044;19.258;2023-02-28T11:58:27;99998.09;;;1.94;75.05
76406;BME280;65234;50.044;19.258;2023-02-28T12:01:09;99996.50;;;1.93;74.48
76406;BME280;65234;50.044;19.258;2023-02-28T12:03:45;99986.09;;;2.04;74.67
76406;BME280;65234;50.044;19.258;2023-02-28T12:06:20;99986.03;;;2.17;74.68
76406;BME280;65234;50.044;19.258;2023-02-28T12:09:02;99983.00;;;2.19;75.81
76406;BME280;65234;50.044;19.258;2023-02-28T12:11:36;99988.81;;;2.26;74.86
76406;BME280;65234;50.044;19.258;2023-02-28T12:14:30;99992.47;;;2.21;74.59
76406;BME280;65234;50.044;19.258;2023-02-28T12:17:05;99985.16;;;2.30;78.08
76406;BME280;65234;50.044;19.258;2023-02-28T12:19:43;99983.75;;;2.42;75.53
76406;BME280;65234;50.044;19.258;2023-02-28T12:22:25;99986.69;;;2.54;74.62
76406;BME280;65234;50.044;19.258;2023-02-28T12:25:15;99982.22;;;2.58;76.08
76406;BME280;65234;50.044;19.258;2023-02-28T12:27:47;99982.16;;;2.49;73.83
76406;BME280;65234;50.044;19.258;2023-02-28T12:30:17;99982.94;;;2.41;73.60
76406;BME280;65234;50.044;19.258;2023-02-28T12:32:46;99977.81;;;2.40;73.54
76406;BME280;65234;50.044;19.258;2023-02-28T12:35:17;99983.16;;;2.45;74.55
76406;BME280;65234;50.044;19.258;2023-02-28T12:37:47;99973.13;;;2.40;72.83
76406;BME280;65234;50.044;19.258;2023-02-28T12:40:19;99980.75;;;2.52;72.84
76406;BME280;65234;50.044;19.258;2023-02-28T12:42:49;99976.09;;;2.52;74.40
76406;BME280;65234;50.044;19.258;2023-02-28T12:45:18;99980.00;;;2.60;75.94
76406;BME280;65234;50.044;19.258;2023-02-28T12:47:48;99981.16;;;2.67;74.21
76406;BME280;65234;50.044;19.258;2023-02-28T12:50:16;99988.09;;;2.82;74.99
76406;BME280;65234;50.044;19.258;2023-02-28T12:52:48;99982.44;;;2.70;76.01
76406;BME280;65234;50.044;19.258;2023-02-28T12:55:21;99983.16;;;2.84;74.63
76406;BME280;65234;50.044;19.258;2023-02-28T12:57:53;99983.94;;;2.84;74.73